Time;durP1;ratioP1;P1;durP2;ratioP2;P2;SDS_P1;SDS_P2;PMS_P1;PMS_P2;Temp;Humidity;BMP_temperature;BMP_pressure;BME280_temperature;BME280_humidity;BME280_pressure;Samples;Min_cycle;Max_cycle;Signal;HPM_P1;HPM_P2
2022/03/16 00:02:20;;;;;;;38.55;23.88;;;6.30;99.90;;;;;;5049695;28;20091;-48
2022/03/16 00:04:47;;;;;;;39.00;23.65;;;6.40;99.90;;;;;;5049564;28;20037;-46
2022/03/16 00:07:13;;;;;;;40.17;23.75;;;6.30;99.90;;;;;;5049581;28;20033;-46
2022/03/16 00:09:39;;;;;;;40.97;23.23;;;6.20;99.90;;;;;;5049606;28;20041;-49
2022/03/16 00:12:05;;;;;;;45.03;24.30;;;6.20;99.90;;;;;;5046665;28;20045;-48
2022/03/16 00:14:31;;;;;;;43.40;25.05;;;6.30;99.90;;;;;;5049796;28;20131;-48
2022/03/16 00:16:56;;;;;;;45.17;25.58;;;6.20;99.90;;;;;;5048229;28;20516;-47
2022/03/16 00:19:22;;;;;;;39.88;24.35;;;6.20;99.90;;;;;;5049971;28;20499;-46
2022/03/16 00:21:47;;;;;;;42.85;25.10;;;6.30;99.90;;;;;;5053475;28;20037;-47
2022/03/16 00:24:13;;;;;;;39.28;24.65;;;6.10;99.90;;;;;;5053187;28;20045;-49
2022/03/16 00:26:39;;;;;;;43.10;23.95;;;6.00;99.90;;;;;;5052072;28;20482;-46
2022/03/16 00:29:05;;;;;;;39.22;23.45;;;5.80;99.90;;;;;;5052084;28;20063;-49
2022/03/16 00:31:32;;;;;;;41.45;23.95;;;5.80;99.90;;;;;;5053277;28;20048;-46
2022/03/16 00:33:57;;;;;;;37.63;22.67;;;5.80;99.90;;;;;;5051790;28;20053;-47
2022/03/16 00:36:23;;;;;;;37.13;23.25;;;5.70;99.90;;;;;;5052956;28;20492;-47
2022/03/16 00:38:49;;;;;;;38.33;22.73;;;5.50;99.90;;;;;;5053050;28;20369;-47
2022/03/16 00:41:16;;;;;;;36.05;22.60;;;5.50;99.90;;;;;;5053032;28;20041;-47
2022/03/16 00:43:42;;;;;;;37.78;22.73;;;5.60;99.90;;;;;;5053414;28;20073;-46
2022/03/16 00:46:08;;;;;;;36.90;22.50;;;5.40;99.90;;;;;;5052640;28;20053;-46
2022/03/16 00:48:34;;;;;;;39.42;23.05;;;5.40;99.90;;;;;;5052031;28;20032;-47
2022/03/16 00:51:00;;;;;;;35.88;22.25;;;5.30;99.90;;;;;;5047779;28;20122;-47
2022/03/16 00:53:26;;;;;;;37.88;23.35;;;5.40;99.90;;;;;;5053085;28;20072;-49
2022/03/16 00:55:51;;;;;;;36.35;22.80;;;5.30;99.90;;;;;;5051652;28;20473;-44
2022/03/16 00:58:17;;;;;;;44.00;23.67;;;5.50;99.90;;;;;;5053017;28;20461;-46
2022/03/16 01:00:43;;;;;;;47.67;25.75;;;5.30;99.90;;;;;;5053002;28;20106;-47
2022/03/16 01:03:08;;;;;;;44.40;26.10;;;5.50;99.90;;;;;;5051124;28;20496;-45
2022/03/16 01:05:34;;;;;;;48.50;26.90;;;5.50;99.90;;;;;;5052494;28;20098;-45
2022/03/16 01:08:00;;;;;;;46.53;26.30;;;5.50;99.90;;;;;;5052279;28;20064;-46
2022/03/16 01:10:25;;;;;;;44.05;25.30;;;5.30;99.90;;;;;;5052267;28;20045;-48
2022/03/16 01:12:53;;;;;;;44.15;25.92;;;5.20;99.90;;;;;;5052595;28;20037;-46
2022/03/16 01:15:23;;;;;;;49.30;27.63;;;5.30;99.90;;;;;;5052834;28;20052;-47
2022/03/16 01:17:51;;;;;;;45.38;26.17;;;5.30;99.90;;;;;;5052793;28;20536;-46
2022/03/16 01:20:18;;;;;;;42.78;26.77;;;5.30;99.90;;;;;;5052369;28;20518;-46
2022/03/16 01:22:44;;;;;;;47.83;27.30;;;5.30;99.90;;;;;;5052538;28;20439;-46
2022/03/16 01:25:11;;;;;;;50.03;28.75;;;5.20;99.90;;;;;;5052406;28;20044;-47
2022/03/16 01:27:37;;;;;;;49.75;27.60;;;5.10;99.90;;;;;;5052615;28;20095;-48
2022/03/16 01:30:03;;;;;;;45.58;27.40;;;5.20;99.90;;;;;;5051090;28;20037;-46
2022/03/16 01:32:29;;;;;;;47.63;27.98;;;5.20;99.90;;;;;;5050802;28;20047;-48
2022/03/16 01:34:55;;;;;;;48.10;28.67;;;5.20;99.90;;;;;;5052434;28;20032;-48
2022/03/16 01:37:20;;;;;;;48.88;28.13;;;5.10;99.90;;;;;;5052003;28;20041;-47
2022/03/16 01:39:46;;;;;;;50.17;28.58;;;5.20;99.90;;;;;;5052166;28;20433;-49
2022/03/16 01:42:13;;;;;;;50.47;27.63;;;5.10;99.90;;;;;;5051856;28;20490;-47
2022/03/16 01:44:47;;;;;;;48.33;28.63;;;5.00;99.90;;;;;;5050892;28;20492;-46
2022/03/16 01:47:19;;;;;;;53.13;29.58;;;5.00;99.90;;;;;;5051918;28;20057;-48
2022/03/16 01:49:45;;;;;;;49.45;28.10;;;5.20;99.90;;;;;;5052106;28;20394;-50
2022/03/16 01:52:14;;;;;;;48.13;28.55;;;5.00;99.90;;;;;;5050551;28;20470;-49
2022/03/16 01:54:41;;;;;;;50.25;28.67;;;5.00;99.90;;;;;;5051975;28;20033;-49
2022/03/16 01:57:11;;;;;;;45.90;28.05;;;4.90;99.90;;;;;;5051931;28;20035;-46
2022/03/16 01:59:38;;;;;;;51.40;30.00;;;5.00;99.90;;;;;;5051814;28;20036;-48
2022/03/16 02:02:05;;;;;;;51.38;28.58;;;5.10;99.90;;;;;;5050431;28;20040;-51
2022/03/16 02:04:31;;;;;;;49.90;28.98;;;5.20;99.90;;;;;;5051483;28;20040;-47
2022/03/16 02:07:02;;;;;;;49.75;28.83;;;4.90;99.90;;;;;;5051195;28;20033;-46
2022/03/16 02:09:28;;;;;;;45.63;27.65;;;4.90;99.90;;;;;;5050105;28;20045;-46
2022/03/16 02:11:54;;;;;;;44.67;28.40;;;4.80;99.90;;;;;;5051583;28;20427;-47
2022/03/16 02:14:20;;;;;;;48.38;28.05;;;4.80;99.90;;;;;;5049480;28;20106;-48
2022/03/16 02:16:46;;;;;;;48.78;28.33;;;5.10;99.90;;;;;;5051423;28;20037;-48
2022/03/16 02:19:12;;;;;;;49.85;28.13;;;5.20;99.90;;;;;;5051141;28;20037;-49
2022/03/16 02:21:39;;;;;;;45.05;26.17;;;5.00;99.90;;;;;;5051580;28;20031;-47
2022/03/16 02:24:05;;;;;;;37.50;23.80;;;4.90;99.90;;;;;;5050911;28;20048;-46
2022/03/16 02:26:31;;;;;;;38.13;24.35;;;4.60;99.90;;;;;;5050947;28;20068;-45
2022/03/16 02:28:57;;;;;;;37.75;23.35;;;4.70;99.90;;;;;;5051303;28;20537;-45
2022/03/16 02:31:24;;;;;;;35.05;21.73;;;4.70;99.90;;;;;;5050914;28;20044;-48
2022/03/16 02:33:50;;;;;;;31.27;21.15;;;4.60;99.90;;;;;;5050734;28;20048;-45
2022/03/16 02:36:16;;;;;;;29.05;19.77;;;4.40;99.90;;;;;;5050608;28;20040;-46
2022/03/16 02:38:42;;;;;;;30.60;20.67;;;4.50;99.90;;;;;;5051158;28;20370;-46
2022/03/16 02:41:08;;;;;;;29.35;20.23;;;4.30;99.90;;;;;;5051076;28;20036;-45
2022/03/16 02:43:34;;;;;;;26.77;19.10;;;4.40;99.90;;;;;;5050032;28;20053;-48
2022/03/16 02:45:59;;;;;;;35.40;21.95;;;4.10;99.90;;;;;;5050653;28;20049;-47
2022/03/16 02:48:25;;;;;;;32.42;21.00;;;4.20;99.90;;;;;;5050568;28;20069;-48
2022/03/16 02:50:50;;;;;;;38.80;22.58;;;4.20;99.90;;;;;;5050235;28;20058;-48
2022/03/16 02:53:16;;;;;;;46.28;26.95;;;4.20;99.90;;;;;;5050302;28;20041;-44
2022/03/16 02:55:44;;;;;;;45.03;26.73;;;4.40;99.90;;;;;;5049445;28;20082;-47
2022/03/16 02:58:10;;;;;;;49.17;28.45;;;4.20;99.90;;;;;;5050604;28;20048;-45
2022/03/16 03:00:36;;;;;;;49.83;29.45;;;4.40;99.90;;;;;;5050741;28;20465;-48
2022/03/16 03:03:02;;;;;;;49.22;29.92;;;4.30;99.90;;;;;;5050623;28;20120;-51
2022/03/16 03:05:28;;;;;;;55.28;30.40;;;4.10;99.90;;;;;;5050440;28;20048;-47
2022/03/16 03:07:54;;;;;;;47.38;30.02;;;4.40;99.90;;;;;;5050183;28;20469;-46
2022/03/16 03:10:20;;;;;;;53.65;30.60;;;4.20;99.90;;;;;;5050141;28;20032;-44
2022/03/16 03:12:46;;;;;;;55.15;30.70;;;4.40;99.90;;;;;;5050384;28;20506;-45
2022/03/16 03:15:13;;;;;;;53.15;29.98;;;4.20;99.90;;;;;;5050316;28;20025;-47
2022/03/16 03:17:42;;;;;;;53.15;30.58;;;4.20;99.90;;;;;;5050418;28;20040;-47
2022/03/16 03:20:09;;;;;;;51.75;30.48;;;4.10;99.90;;;;;;5050537;28;20086;-48
2022/03/16 03:22:35;;;;;;;46.08;29.75;;;4.00;99.90;;;;;;5050292;28;20614;-49
2022/03/16 03:25:01;;;;;;;49.92;30.58;;;4.10;99.90;;;;;;5050466;28;20033;-45
2022/03/16 03:27:27;;;;;;;49.90;31.05;;;4.10;99.90;;;;;;5050179;28;20499;-46
2022/03/16 03:29:53;;;;;;;50.78;31.42;;;4.00;99.90;;;;;;5049887;28;20076;-45
2022/03/16 03:32:19;;;;;;;52.17;31.52;;;4.10;99.90;;;;;;5050260;28;20122;-44
2022/03/16 03:34:47;;;;;;;47.70;30.80;;;4.20;99.90;;;;;;5050168;28;20669;-46
2022/03/16 03:37:16;;;;;;;51.03;29.60;;;4.00;99.90;;;;;;5049973;28;20036;-46
2022/03/16 03:39:42;;;;;;;54.17;30.98;;;3.90;99.90;;;;;;5049896;28;20037;-46
2022/03/16 03:42:09;;;;;;;52.28;30.95;;;4.20;99.90;;;;;;5047097;28;20167;-45
2022/03/16 03:44:37;;;;;;;53.53;30.85;;;4.00;99.90;;;;;;5049877;28;20086;-47
2022/03/16 03:47:07;;;;;;;55.08;31.38;;;3.80;99.90;;;;;;5048575;28;20052;-46
2022/03/16 03:49:37;;;;;;;50.53;30.73;;;3.90;99.90;;;;;;5050385;28;20041;-47
2022/03/16 03:52:04;;;;;;;53.00;30.83;;;4.00;99.90;;;;;;5050264;28;20037;-51
2022/03/16 03:54:30;;;;;;;57.45;32.05;;;3.90;99.90;;;;;;5050610;28;20048;-46
2022/03/16 03:56:56;;;;;;;59.33;32.03;;;4.00;99.90;;;;;;5054258;28;20590;-49
2022/03/16 03:59:23;;;;;;;57.70;33.03;;;3.80;99.90;;;;;;5054226;28;20033;-46
2022/03/16 04:01:49;;;;;;;55.10;31.65;;;3.80;99.90;;;;;;5053823;28;20107;-45
2022/03/16 04:04:15;;;;;;;53.40;32.08;;;3.80;99.90;;;;;;5054184;28;20037;-45
2022/03/16 04:06:40;;;;;;;55.75;32.03;;;3.80;99.90;;;;;;5053455;28;20041;-46
2022/03/16 04:09:06;;;;;;;57.20;33.80;;;3.70;99.90;;;;;;5053846;28;20033;-47
2022/03/16 04:11:34;;;;;;;57.13;32.97;;;3.80;99.90;;;;;;5052489;28;20029;-48
2022/03/16 04:14:00;;;;;;;56.45;33.58;;;3.90;99.90;;;;;;5053590;28;20091;-48
2022/03/16 04:16:26;;;;;;;59.63;35.08;;;4.00;99.90;;;;;;5053661;28;20029;-47
2022/03/16 04:18:52;;;;;;;57.33;32.42;;;3.80;99.90;;;;;;5052546;28;20036;-47
2022/03/16 04:21:18;;;;;;;52.75;33.00;;;3.70;99.90;;;;;;5053714;28;20128;-44
2022/03/16 04:23:43;;;;;;;59.08;34.45;;;3.90;99.90;;;;;;5053875;28;20128;-48
2022/03/16 04:26:09;;;;;;;54.03;32.30;;;3.70;99.90;;;;;;5053675;28;20148;-49
2022/03/16 04:28:35;;;;;;;55.35;33.92;;;3.80;99.90;;;;;;5053439;28;20442;-48
2022/03/16 04:31:01;;;;;;;57.17;33.67;;;4.00;99.90;;;;;;5053408;28;20045;-47
2022/03/16 04:33:27;;;;;;;52.30;31.67;;;3.90;99.90;;;;;;5053173;28;20040;-46
2022/03/16 04:35:53;;;;;;;53.83;32.53;;;3.60;99.90;;;;;;5052235;28;20393;-48
2022/03/16 04:38:19;;;;;;;50.70;30.85;;;3.50;99.90;;;;;;5051496;28;20034;-48
2022/03/16 04:40:45;;;;;;;52.42;31.60;;;3.70;99.90;;;;;;5053505;28;20519;-45
2022/03/16 04:43:11;;;;;;;52.05;31.48;;;3.40;99.90;;;;;;5052890;28;20491;-50
2022/03/16 04:45:39;;;;;;;50.15;30.88;;;3.60;99.90;;;;;;5053061;28;20043;-46
2022/03/16 04:48:13;;;;;;;49.78;31.33;;;3.50;99.90;;;;;;5050871;28;20036;-46
2022/03/16 04:50:43;;;;;;;49.97;30.88;;;3.60;99.90;;;;;;5053271;28;20165;-47
2022/03/16 04:53:08;;;;;;;48.85;31.92;;;3.30;99.90;;;;;;5053137;28;20047;-45
2022/03/16 04:55:36;;;;;;;54.05;33.15;;;3.20;99.90;;;;;;5052855;28;20037;-45
2022/03/16 04:58:06;;;;;;;54.28;33.55;;;3.30;99.90;;;;;;5053087;28;20106;-46
2022/03/16 05:00:37;;;;;;;54.15;32.40;;;3.20;99.90;;;;;;5053183;28;20381;-50
2022/03/16 05:03:03;;;;;;;58.13;33.53;;;3.50;99.90;;;;;;5053046;28;20084;-45
2022/03/16 05:05:29;;;;;;;49.28;31.55;;;3.20;99.90;;;;;;5052792;28;20124;-48
2022/03/16 05:07:55;;;;;;;56.08;34.47;;;3.50;99.90;;;;;;5052421;28;20132;-46
2022/03/16 05:10:21;;;;;;;60.63;34.88;;;3.20;99.90;;;;;;5049868;28;20129;-47
2022/03/16 05:12:47;;;;;;;60.08;34.70;;;3.20;99.90;;;;;;5052394;28;20037;-46
2022/03/16 05:15:18;;;;;;;58.83;34.13;;;3.20;99.90;;;;;;5051102;28;20054;-48
2022/03/16 05:17:45;;;;;;;59.05;35.08;;;3.20;99.90;;;;;;5052766;28;20080;-47
2022/03/16 05:20:12;;;;;;;58.00;34.88;;;3.30;99.90;;;;;;5051972;28;20087;-45
2022/03/16 05:22:52;;;;;;;59.28;35.92;;;3.20;99.90;;;;;;5052504;28;20037;-48
2022/03/16 05:25:24;;;;;;;58.47;34.30;;;3.20;99.90;;;;;;5052001;28;20064;-47
2022/03/16 05:27:50;;;;;;;53.78;34.58;;;3.20;99.90;;;;;;5052262;28;20095;-47
2022/03/16 05:30:15;;;;;;;58.88;35.83;;;3.20;99.90;;;;;;5034397;28;20048;-45
2022/03/16 05:32:42;;;;;;;60.10;35.85;;;3.40;99.90;;;;;;5050116;28;20033;-47
2022/03/16 05:35:10;;;;;;;55.72;33.78;;;3.10;99.90;;;;;;5049789;28;20526;-47
2022/03/16 05:37:37;;;;;;;57.03;33.95;;;3.10;99.90;;;;;;5049283;28;20064;-46
2022/03/16 05:40:06;;;;;;;60.40;37.40;;;3.50;99.90;;;;;;5050779;28;20098;-46
2022/03/16 05:42:32;;;;;;;60.95;37.42;;;3.20;99.90;;;;;;5050820;28;20049;-48
2022/03/16 05:44:58;;;;;;;59.22;36.88;;;3.10;99.90;;;;;;5051466;28;20045;-45
2022/03/16 05:47:24;;;;;;;66.57;39.20;;;3.30;99.90;;;;;;5052041;28;20071;-47
2022/03/16 05:49:54;;;;;;;60.08;38.05;;;3.40;99.90;;;;;;5052069;28;20032;-49
2022/03/16 05:52:21;;;;;;;57.70;37.35;;;3.30;99.90;;;;;;5052077;28;20029;-47
2022/03/16 05:54:52;;;;;;;65.18;38.42;;;3.00;99.90;;;;;;5050266;28;20048;-45
2022/03/16 05:57:19;;;;;;;61.80;36.80;;;3.00;99.90;;;;;;5052055;28;20048;-47
2022/03/16 05:59:45;;;;;;;60.95;36.67;;;3.30;99.90;;;;;;5051803;28;20072;-45
2022/03/16 06:02:13;;;;;;;60.10;35.38;;;3.00;99.90;;;;;;5051977;28;20040;-46
2022/03/16 06:04:40;;;;;;;57.83;35.97;;;3.20;99.90;;;;;;5051745;28;20111;-45
2022/03/16 06:07:06;;;;;;;55.00;35.25;;;3.30;99.90;;;;;;5051026;28;20048;-46
2022/03/16 06:09:32;;;;;;;58.30;36.53;;;3.30;99.90;;;;;;5051735;28;20045;-48
2022/03/16 06:11:58;;;;;;;56.45;35.97;;;3.20;99.90;;;;;;5051417;28;20102;-47
2022/03/16 06:14:24;;;;;;;63.60;38.22;;;3.20;99.90;;;;;;5049933;28;20048;-45
2022/03/16 06:16:52;;;;;;;60.85;38.50;;;3.30;99.90;;;;;;5051244;28;20041;-44
2022/03/16 06:19:21;;;;;;;64.90;39.85;;;3.40;99.90;;;;;;5050999;28;20036;-46
2022/03/16 06:21:47;;;;;;;65.15;39.67;;;3.00;99.90;;;;;;5051349;28;20400;-46
2022/03/16 06:24:13;;;;;;;61.50;38.67;;;3.20;99.90;;;;;;5051116;28;20041;-46
2022/03/16 06:26:39;;;;;;;62.35;40.17;;;3.20;99.90;;;;;;5051492;28;20477;-46
2022/03/16 06:29:05;;;;;;;65.43;37.88;;;3.50;99.90;;;;;;5049746;28;20048;-46
2022/03/16 06:31:31;;;;;;;63.45;40.65;;;3.50;99.90;;;;;;5051248;28;20433;-45
2022/03/16 06:33:57;;;;;;;63.85;39.80;;;3.60;99.90;;;;;;5051255;28;20096;-45
2022/03/16 06:36:23;;;;;;;64.80;41.58;;;3.30;99.90;;;;;;5050645;28;20029;-48
2022/03/16 06:38:49;;;;;;;62.83;39.78;;;3.30;99.90;;;;;;5051297;28;20033;-43
2022/03/16 06:41:15;;;;;;;65.97;40.70;;;3.40;99.90;;;;;;5051053;28;20065;-46
2022/03/16 06:43:40;;;;;;;72.10;42.13;;;3.30;99.90;;;;;;5050703;28;20143;-46
2022/03/16 06:46:06;;;;;;;67.35;41.92;;;3.40;99.90;;;;;;5049864;28;20048;-46
2022/03/16 06:48:32;;;;;;;69.97;41.63;;;3.40;99.90;;;;;;5051275;28;20045;-48
2022/03/16 06:50:58;;;;;;;69.13;42.63;;;3.70;99.90;;;;;;5050910;28;20049;-45
2022/03/16 06:53:24;;;;;;;71.28;45.88;;;3.60;99.90;;;;;;5050939;28;20128;-48
2022/03/16 06:55:49;;;;;;;79.30;45.30;;;3.90;99.90;;;;;;5049551;28;20087;-47
2022/03/16 06:58:16;;;;;;;71.97;42.83;;;3.70;99.90;;;;;;5050751;28;21623;-48
2022/03/16 07:00:41;;;;;;;73.22;44.63;;;4.00;99.90;;;;;;5050815;28;20112;-49
2022/03/16 07:03:07;;;;;;;71.68;44.13;;;3.70;99.90;;;;;;5050398;28;20555;-48
2022/03/16 07:05:36;;;;;;;73.93;44.38;;;3.80;99.90;;;;;;5050460;28;20044;-47
2022/03/16 07:08:04;;;;;;;74.20;42.88;;;3.80;99.90;;;;;;5050324;28;20094;-49
2022/03/16 07:10:31;;;;;;;71.13;43.83;;;3.90;99.90;;;;;;5050483;28;20037;-48
2022/03/16 07:12:57;;;;;;;72.10;44.05;;;4.20;99.90;;;;;;5047738;28;20435;-48
2022/03/16 07:15:23;;;;;;;76.78;44.67;;;4.00;99.90;;;;;;5050634;28;20036;-48
2022/03/16 07:17:49;;;;;;;74.80;44.35;;;4.20;99.90;;;;;;5049141;28;20071;-44
2022/03/16 07:20:15;;;;;;;79.22;45.65;;;4.30;99.90;;;;;;5049272;28;20061;-45
2022/03/16 07:22:41;;;;;;;75.53;45.90;;;4.40;99.90;;;;;;5050199;28;20044;-45
2022/03/16 07:25:10;;;;;;;78.63;47.15;;;4.50;99.90;;;;;;5050202;28;20488;-45
2022/03/16 07:27:40;;;;;;;78.70;46.92;;;4.30;99.90;;;;;;5049675;28;20103;-45
2022/03/16 07:30:08;;;;;;;82.53;48.03;;;4.50;99.90;;;;;;5049633;28;20207;-48
2022/03/16 07:32:41;;;;;;;82.10;47.05;;;4.40;99.90;;;;;;5050128;28;20029;-44
2022/03/16 07:35:11;;;;;;;84.63;48.10;;;4.60;99.90;;;;;;5050450;28;20056;-46
2022/03/16 07:37:42;;;;;;;84.65;49.35;;;4.50;99.90;;;;;;5049644;28;20361;-45
2022/03/16 07:40:08;;;;;;;90.97;52.78;;;4.60;99.90;;;;;;5050203;28;20120;-45
2022/03/16 07:42:35;;;;;;;90.80;49.70;;;4.90;99.90;;;;;;5046816;28;20056;-46
2022/03/16 07:45:00;;;;;;;86.50;49.67;;;5.10;99.90;;;;;;5050055;28;20119;-49
2022/03/16 07:47:26;;;;;;;91.40;52.05;;;5.30;99.90;;;;;;5049658;28;20136;-48
2022/03/16 07:49:53;;;;;;;92.53;54.30;;;5.00;99.90;;;;;;5050083;28;20041;-47
2022/03/16 07:52:20;;;;;;;95.60;53.25;;;5.40;99.90;;;;;;5049948;28;20101;-49
2022/03/16 07:54:46;;;;;;;90.10;50.72;;;5.50;99.90;;;;;;5048087;28;20049;-50
2022/03/16 07:57:11;;;;;;;85.25;49.45;;;5.90;99.90;;;;;;5049891;28;20041;-47
2022/03/16 07:59:37;;;;;;;77.18;47.25;;;5.70;99.90;;;;;;5047214;28;20049;-49
2022/03/16 08:02:03;;;;;;;76.85;47.08;;;5.80;99.90;;;;;;5049782;28;20032;-47
2022/03/16 08:04:28;;;;;;;72.43;46.63;;;6.10;99.90;;;;;;5031771;28;20041;-48
2022/03/16 08:06:54;;;;;;;70.40;44.90;;;6.00;99.90;;;;;;5049479;28;20468;-48
2022/03/16 08:09:20;;;;;;;65.95;42.13;;;6.30;99.90;;;;;;5049930;28;20048;-47
2022/03/16 08:11:45;;;;;;;65.32;41.88;;;6.50;99.90;;;;;;5049468;28;20600;-51
2022/03/16 08:14:12;;;;;;;69.90;42.70;;;6.50;99.90;;;;;;5045354;28;20386;-47
2022/03/16 08:16:38;;;;;;;67.70;40.85;;;6.50;99.90;;;;;;5041188;28;20112;-50
2022/03/16 08:19:04;;;;;;;64.45;38.28;;;6.70;99.90;;;;;;5038271;28;20048;-47
2022/03/16 08:21:30;;;;;;;54.35;36.55;;;7.10;99.90;;;;;;5022766;28;20041;-49
2022/03/16 08:23:56;;;;;;;56.15;35.97;;;6.90;99.90;;;;;;5040151;28;20246;-48
2022/03/16 08:26:23;;;;;;;58.40;35.22;;;7.00;99.90;;;;;;5039689;28;20036;-49
2022/03/16 08:28:49;;;;;;;51.88;34.28;;;7.20;99.90;;;;;;5041938;28;20041;-46
2022/03/16 08:31:15;;;;;;;48.03;31.90;;;7.30;99.90;;;;;;5041479;28;20048;-47
2022/03/16 08:33:41;;;;;;;46.60;30.92;;;7.40;99.90;;;;;;5040323;28;20104;-46
2022/03/16 08:36:08;;;;;;;45.83;31.38;;;7.40;99.90;;;;;;5040817;28;20507;-44
2022/03/16 08:38:37;;;;;;;43.70;30.48;;;7.70;99.90;;;;;;5039237;28;20037;-47
2022/03/16 08:41:07;;;;;;;49.83;30.58;;;7.90;99.90;;;;;;5041228;28;20525;-45
2022/03/16 08:43:37;;;;;;;45.97;31.33;;;7.60;99.90;;;;;;5040021;28;20061;-47
2022/03/16 08:46:03;;;;;;;44.63;28.65;;;7.80;99.90;;;;;;5038551;28;20131;-46
2022/03/16 08:48:30;;;;;;;45.17;27.17;;;8.00;99.90;;;;;;5041200;28;20037;-47
2022/03/16 08:50:56;;;;;;;41.10;26.08;;;8.10;99.90;;;;;;5042062;28;20029;-45
2022/03/16 08:53:21;;;;;;;39.30;26.55;;;8.10;99.90;;;;;;5042049;28;20362;-46
2022/03/16 08:55:47;;;;;;;37.60;25.20;;;8.30;99.90;;;;;;5043530;28;20433;-49
2022/03/16 08:58:14;;;;;;;36.28;23.85;;;8.30;99.90;;;;;;5042406;28;20500;-49
2022/03/16 09:00:41;;;;;;;39.25;24.65;;;8.40;99.90;;;;;;5043172;28;20033;-51
2022/03/16 09:03:07;;;;;;;40.38;24.88;;;8.60;99.90;;;;;;5042716;28;20029;-47
2022/03/16 09:05:34;;;;;;;34.83;23.20;;;8.70;99.90;;;;;;5044046;28;20420;-48
2022/03/16 09:08:00;;;;;;;35.28;22.75;;;8.90;99.90;;;;;;5043182;28;20400;-49
2022/03/16 09:10:26;;;;;;;32.97;22.60;;;9.00;99.90;;;;;;5044441;28;20049;-49
2022/03/16 09:12:51;;;;;;;35.60;24.17;;;9.10;99.90;;;;;;5041752;28;20035;-46
2022/03/16 09:15:17;;;;;;;32.38;22.52;;;9.20;99.90;;;;;;5045082;28;20033;-46
2022/03/16 09:17:43;;;;;;;35.17;22.10;;;9.40;99.90;;;;;;5044541;28;20036;-49
2022/03/16 09:20:08;;;;;;;29.05;19.55;;;9.40;99.90;;;;;;5044014;28;20028;-49
2022/03/16 09:22:34;;;;;;;35.08;21.50;;;9.60;99.90;;;;;;5044372;28;20500;-49
2022/03/16 09:25:01;;;;;;;29.58;19.77;;;9.80;99.90;;;;;;5044506;28;20476;-51
2022/03/16 09:27:27;;;;;;;32.53;20.20;;;10.00;99.90;;;;;;5044191;28;20116;-48
2022/03/16 09:29:55;;;;;;;30.60;19.52;;;10.20;99.90;;;;;;5041599;28;20039;-50
2022/03/16 09:32:21;;;;;;;28.15;18.65;;;10.20;99.90;;;;;;5043823;28;20051;-48
2022/03/16 09:34:48;;;;;;;30.08;19.83;;;10.30;99.90;;;;;;5043207;28;20408;-49
2022/03/16 09:37:14;;;;;;;33.40;18.23;;;10.50;99.90;;;;;;5043925;28;20044;-49
2022/03/16 09:39:41;;;;;;;25.90;16.52;;;10.60;99.90;;;;;;5043683;28;20033;-48
2022/03/16 09:42:08;;;;;;;29.85;17.95;;;10.70;99.90;;;;;;5062791;28;20528;-48
2022/03/16 09:44:34;;;;;;;24.95;15.73;;;10.80;99.90;;;;;;5042670;28;20041;-50
2022/03/16 09:47:00;;;;;;;22.98;14.82;;;10.80;99.90;;;;;;5042546;28;20045;-48
2022/03/16 09:49:27;;;;;;;28.00;16.50;;;10.80;99.90;;;;;;5043191;28;20042;-47
2022/03/16 09:51:54;;;;;;;22.83;14.52;;;11.00;99.90;;;;;;5042099;28;20041;-49
2022/03/16 09:54:24;;;;;;;22.27;13.85;;;11.10;99.90;;;;;;5042123;28;20037;-48
2022/03/16 09:56:49;;;;;;;22.02;13.20;;;11.10;99.90;;;;;;5044026;28;20113;-48
2022/03/16 09:59:16;;;;;;;19.48;13.13;;;11.10;99.90;;;;;;5043341;28;20029;-47
2022/03/16 10:01:43;;;;;;;23.95;12.77;;;11.20;99.90;;;;;;5043574;28;20503;-51
2022/03/16 10:04:09;;;;;;;18.70;11.07;;;11.30;99.90;;;;;;5040459;28;20094;-50
2022/03/16 10:06:40;;;;;;;20.23;12.52;;;11.30;99.90;;;;;;5042681;28;20067;-48
2022/03/16 10:15:18;;;;;;;18.52;10.93;;;11.50;99.90;;;;;;5049902;28;20090;-49
2022/03/16 10:18:05;;;;;;;19.45;11.50;;;11.60;99.90;;;;;;5051837;28;20044;-46
2022/03/16 10:20:39;;;;;;;18.60;12.10;;;11.70;99.90;;;;;;5051753;28;20060;-51
2022/03/16 10:23:10;;;;;;;15.63;10.07;;;11.70;99.90;;;;;;5033590;28;20075;-48
2022/03/16 10:25:40;;;;;;;17.60;11.18;;;11.80;99.90;;;;;;5051749;28;20041;-49
2022/03/16 10:28:17;;;;;;;18.13;11.40;;;11.90;99.90;;;;;;5051213;28;20032;-50
2022/03/16 10:30:53;;;;;;;17.17;10.90;;;12.10;99.90;;;;;;5051255;28;20056;-49
2022/03/16 10:33:20;;;;;;;19.33;11.20;;;12.00;99.90;;;;;;5051318;28;20044;-48
2022/03/16 10:36:07;;;;;;;17.33;10.77;;;12.10;99.90;;;;;;5051429;28;20052;-52
2022/03/16 10:38:38;;;;;;;16.50;10.18;;;12.00;99.90;;;;;;5047220;28;20043;-50
2022/03/16 10:46:55;;;;;;;17.75;11.25;;;12.50;99.90;;;;;;5048216;28;20118;-47
2022/03/16 10:49:22;;;;;;;16.08;10.50;;;12.60;99.90;;;;;;5051163;28;20492;-46
2022/03/16 10:52:10;;;;;;;18.35;11.68;;;12.70;99.90;;;;;;5050966;28;20052;-48
2022/03/16 10:54:37;;;;;;;16.45;10.88;;;12.90;99.90;;;;;;5049776;28;20045;-47
2022/03/16 10:57:06;;;;;;;14.52;9.82;;;12.80;99.90;;;;;;5050973;28;20945;-49
2022/03/16 10:59:33;;;;;;;17.13;10.57;;;12.90;99.90;;;;;;5051114;28;20041;-50
2022/03/16 11:02:18;;;;;;;15.60;10.52;;;12.90;99.90;;;;;;5050782;28;20053;-47
2022/03/16 11:04:46;;;;;;;14.65;9.43;;;13.00;99.90;;;;;;5050864;28;20088;-46
2022/03/16 11:07:12;;;;;;;14.02;9.68;;;13.30;99.90;;;;;;5050500;28;20554;-49
2022/03/16 11:09:39;;;;;;;14.77;9.05;;;13.30;99.90;;;;;;5041662;28;20192;-46
2022/03/16 11:14:52;;;;;;;14.60;9.52;;;13.30;99.90;;;;;;5041879;28;20060;-47
2022/03/16 11:17:18;;;;;;;13.40;9.07;;;13.50;99.90;;;;;;5040899;28;20025;-49
2022/03/16 11:19:47;;;;;;;15.27;9.27;;;13.50;99.90;;;;;;5041052;28;20033;-50
2022/03/16 11:22:32;;;;;;;13.63;9.15;;;13.40;99.90;;;;;;5039432;28;20461;-46
2022/03/16 11:25:11;;;;;;;15.30;9.45;;;13.50;99.90;;;;;;5040299;28;20041;-48
2022/03/16 11:27:42;;;;;;;14.52;9.63;;;13.50;99.90;;;;;;5041215;28;20117;-49
2022/03/16 11:30:33;;;;;;;14.52;9.70;;;13.60;99.90;;;;;;5041103;28;20041;-48
2022/03/16 11:33:15;;;;;;;14.93;9.48;;;13.90;99.90;;;;;;5044136;28;20190;-47
2022/03/16 11:35:44;;;;;;;13.68;9.07;;;13.80;99.90;;;;;;5047837;28;20033;-45
2022/03/16 11:38:15;;;;;;;15.18;8.93;;;14.00;99.90;;;;;;5047605;28;20108;-48
2022/03/16 11:40:50;;;;;;;13.15;8.85;;;14.20;99.90;;;;;;5049607;28;20426;-49
2022/03/16 11:43:24;;;;;;;15.95;9.95;;;14.30;99.90;;;;;;5048994;28;20144;-45
2022/03/16 11:45:54;;;;;;;15.85;8.93;;;14.40;99.90;;;;;;5049738;28;20052;-45
2022/03/16 11:48:33;;;;;;;13.70;8.57;;;14.10;99.90;;;;;;5049667;28;20044;-48
2022/03/16 11:51:20;;;;;;;14.48;8.65;;;14.80;99.90;;;;;;5048321;28;20328;-45
2022/03/16 11:53:54;;;;;;;14.43;9.05;;;14.90;99.90;;;;;;5048794;28;20399;-48
2022/03/16 11:56:22;;;;;;;13.95;9.60;;;14.80;99.90;;;;;;5049243;28;20435;-48
2022/03/16 11:58:55;;;;;;;13.18;8.98;;;14.80;99.90;;;;;;5048452;28;20037;-50
2022/03/16 12:01:30;;;;;;;13.93;9.18;;;15.00;99.90;;;;;;5048721;28;20477;-49
2022/03/16 12:03:59;;;;;;;13.05;8.40;;;15.10;99.90;;;;;;5047760;28;20480;-48
2022/03/16 12:06:29;;;;;;;14.82;9.13;;;15.30;99.90;;;;;;5049723;28;20068;-49
2022/03/16 12:09:00;;;;;;;14.25;9.00;;;15.50;99.90;;;;;;5048552;28;20059;-49
2022/03/16 12:15:01;;;;;;;14.98;9.35;;;15.40;99.50;;;;;;5049253;28;20048;-49
2022/03/16 12:17:27;;;;;;;12.38;8.88;;;15.70;99.90;;;;;;5053227;28;20090;-49
2022/03/16 12:20:10;;;;;;;13.48;8.82;;;15.90;99.40;;;;;;5068709;28;20543;-50
2022/03/16 12:22:44;;;;;;;13.13;8.68;;;15.90;99.00;;;;;;5053469;28;20041;-49
2022/03/16 12:25:40;;;;;;;16.35;9.85;;;16.10;99.10;;;;;;5052149;28;20044;-49
2022/03/16 12:31:03;;;;;;;11.52;8.32;;;16.30;98.50;;;;;;5052839;28;20051;-50
2022/03/16 12:33:31;;;;;;;13.52;8.75;;;16.10;97.60;;;;;;5053364;28;20469;-49
2022/03/16 12:36:04;;;;;;;13.02;8.77;;;16.30;97.70;;;;;;5053681;28;20044;-47
2022/03/16 12:38:32;;;;;;;13.82;8.40;;;16.40;97.40;;;;;;5053339;28;20134;-47
2022/03/16 12:43:44;;;;;;;12.65;8.77;;;16.50;97.70;;;;;;5053306;28;20068;-47
2022/03/16 12:46:19;;;;;;;13.73;9.02;;;16.30;97.60;;;;;;5051542;28;20044;-47
2022/03/16 12:48:49;;;;;;;13.35;8.38;;;16.50;97.00;;;;;;5052261;28;20080;-49
2022/03/16 12:51:32;;;;;;;14.00;9.27;;;16.30;97.10;;;;;;5051441;28;20044;-46
2022/03/16 12:53:58;;;;;;;14.65;9.40;;;16.30;97.00;;;;;;5052852;28;20036;-48
2022/03/16 12:56:24;;;;;;;14.88;8.70;;;16.60;96.60;;;;;;5052978;28;20384;-46
2022/03/16 12:58:56;;;;;;;15.63;9.00;;;16.70;97.00;;;;;;5052890;28;20065;-48
2022/03/16 13:01:23;;;;;;;13.93;9.20;;;16.70;95.60;;;;;;5052970;28;20531;-47
2022/03/16 13:04:00;;;;;;;15.73;9.57;;;16.80;95.80;;;;;;5052660;28;20120;-47